createdAt,value
2019-02-20T00:01:45.194Z,99.30
2019-02-20T00:04:12.466Z,99.60
2019-02-20T00:06:39.906Z,99.20
2019-02-20T00:09:07.182Z,99.80
2019-02-20T00:11:34.565Z,99.90
2019-02-20T00:14:01.954Z,99.90
2019-02-20T00:16:29.331Z,99.90
2019-02-20T00:18:56.691Z,99.90
2019-02-20T00:21:23.937Z,99.90
2019-02-20T00:23:51.277Z,99.90
2019-02-20T00:26:18.591Z,99.90
2019-02-20T00:28:45.966Z,99.90
2019-02-20T00:31:13.232Z,99.90
2019-02-20T00:33:40.470Z,99.90
2019-02-20T00:36:07.739Z,99.90
2019-02-20T00:38:34.983Z,99.90
2019-02-20T00:41:02.266Z,99.90
2019-02-20T00:43:29.522Z,99.90
2019-02-20T00:46:04.731Z,99.90
2019-02-20T00:48:43.249Z,99.90
2019-02-20T00:51:17.266Z,99.90
2019-02-20T00:53:49.577Z,99.90
2019-02-20T00:56:16.839Z,99.90
2019-02-20T00:58:44.219Z,99.90
2019-02-20T01:01:11.450Z,99.90
2019-02-20T01:03:38.834Z,99.90
2019-02-20T01:06:06.131Z,99.90
2019-02-20T01:08:33.414Z,99.90
2019-02-20T01:11:00.667Z,99.90
2019-02-20T01:13:28.014Z,99.90
2019-02-20T01:15:55.419Z,99.90
2019-02-20T01:18:22.905Z,99.90
2019-02-20T01:20:50.603Z,99.90
2019-02-20T01:23:17.877Z,99.90
2019-02-20T01:25:45.274Z,99.90
2019-02-20T01:28:12.582Z,99.90
2019-02-20T01:30:39.947Z,99.90
2019-02-20T01:33:07.352Z,99.90
2019-02-20T01:35:34.646Z,99.90
2019-02-20T01:38:02.050Z,99.90
2019-02-20T01:40:29.270Z,99.90
2019-02-20T01:42:56.685Z,99.90
2019-02-20T01:45:23.941Z,99.90
2019-02-20T01:47:51.230Z,99.90
2019-02-20T01:50:18.529Z,99.90
2019-02-20T01:52:45.907Z,99.90
2019-02-20T01:55:13.353Z,99.90
2019-02-20T01:57:40.618Z,99.90
2019-02-20T02:00:08.611Z,99.90
2019-02-20T02:02:35.918Z,99.90
2019-02-20T02:05:03.636Z,99.90
2019-02-20T02:07:30.927Z,99.90
2019-02-20T02:09:58.170Z,99.90
2019-02-20T02:12:25.426Z,99.90
2019-02-20T02:14:52.677Z,99.90
2019-02-20T02:17:20.061Z,99.90
2019-02-20T02:19:47.350Z,99.90
2019-02-20T02:22:14.619Z,99.90
2019-02-20T02:24:41.894Z,99.90
2019-02-20T02:27:09.594Z,99.90
2019-02-20T02:29:37.028Z,99.90
2019-02-20T02:32:04.329Z,99.90
2019-02-20T02:34:31.731Z,99.90
2019-02-20T02:36:59.133Z,99.90
2019-02-20T02:39:26.592Z,99.90
2019-02-20T02:41:54.034Z,99.90
2019-02-20T02:44:21.421Z,99.90
2019-02-20T02:46:48.882Z,99.90
2019-02-20T02:49:16.263Z,99.90
2019-02-20T02:51:43.500Z,99.90
2019-02-20T02:54:10.761Z,99.90
2019-02-20T02:56:38.315Z,99.90
2019-02-20T02:59:05.589Z,99.90
2019-02-20T03:01:33.066Z,99.90
2019-02-20T03:04:00.519Z,99.90
2019-02-20T03:06:27.804Z,99.90
2019-02-20T03:08:55.205Z,99.90
2019-02-20T03:11:22.868Z,99.90
2019-02-20T03:13:50.408Z,99.90
2019-02-20T03:16:17.671Z,99.90
2019-02-20T03:18:44.919Z,99.90
2019-02-20T03:21:12.298Z,99.90
2019-02-20T03:23:40.710Z,99.90
2019-02-20T03:26:08.514Z,99.90
2019-02-20T03:28:35.934Z,99.90
2019-02-20T03:31:03.302Z,99.90
2019-02-20T03:33:30.705Z,99.90
2019-02-20T03:35:58.137Z,99.90
2019-02-20T03:38:30.326Z,99.90
2019-02-20T03:40:54.941Z,99.90
2019-02-20T03:43:22.365Z,99.90
2019-02-20T03:45:49.866Z,99.90
2019-02-20T03:48:17.274Z,99.90
2019-02-20T03:50:44.861Z,99.90
2019-02-20T03:53:12.171Z,99.90
2019-02-20T03:55:39.644Z,99.90
2019-02-20T03:58:06.886Z,99.90
2019-02-20T04:00:34.242Z,99.90
2019-02-20T04:03:01.533Z,99.90
2019-02-20T04:05:28.930Z,99.90
2019-02-20T04:07:56.181Z,99.90
2019-02-20T04:10:23.431Z,99.90
2019-02-20T04:12:50.775Z,99.90
2019-02-20T04:15:18.134Z,99.90
2019-02-20T04:17:45.418Z,99.90
2019-02-20T04:20:12.807Z,99.90
2019-02-20T04:22:40.207Z,99.90
2019-02-20T04:25:07.503Z,99.90
2019-02-20T04:27:34.772Z,99.90
2019-02-20T04:30:02.158Z,99.90
2019-02-20T04:32:29.728Z,99.90
2019-02-20T04:34:57.174Z,99.90
2019-02-20T04:37:24.396Z,99.90
2019-02-20T04:39:51.814Z,99.90
2019-02-20T04:42:19.173Z,99.90
2019-02-20T04:44:46.458Z,99.90
2019-02-20T04:47:13.781Z,99.90
2019-02-20T04:49:41.237Z,99.90
2019-02-20T04:52:08.478Z,99.90
2019-02-20T04:54:35.854Z,99.90
2019-02-20T04:57:03.233Z,99.90
2019-02-20T04:59:30.501Z,99.90
2019-02-20T05:01:57.750Z,99.90
2019-02-20T05:04:26.350Z,99.90
2019-02-20T05:06:53.703Z,99.90
2019-02-20T05:09:21.110Z,99.90
2019-02-20T05:11:48.550Z,99.90
2019-02-20T05:14:15.895Z,99.90
2019-02-20T05:16:43.188Z,99.90
2019-02-20T05:19:10.461Z,99.90
2019-02-20T05:21:37.887Z,99.90
2019-02-20T05:24:05.371Z,99.90
2019-02-20T05:26:32.721Z,99.90
2019-02-20T05:29:00.018Z,99.90
2019-02-20T05:31:27.495Z,99.90
2019-02-20T05:33:54.950Z,99.90
2019-02-20T05:36:22.195Z,99.90
2019-02-20T05:38:49.523Z,99.90
2019-02-20T05:41:16.794Z,99.90
2019-02-20T05:43:44.329Z,99.90
2019-02-20T05:46:11.599Z,99.90
2019-02-20T05:48:39.042Z,99.90
2019-02-20T05:51:06.522Z,99.90
2019-02-20T05:53:33.788Z,99.90
2019-02-20T05:56:01.284Z,99.90
2019-02-20T05:58:28.787Z,99.90
2019-02-20T06:00:56.144Z,99.90
2019-02-20T06:03:23.614Z,99.90
2019-02-20T06:05:50.860Z,99.90
2019-02-20T06:08:18.114Z,99.90
2019-02-20T06:10:45.486Z,99.90
2019-02-20T06:13:12.766Z,99.90
2019-02-20T06:15:40.138Z,99.90
2019-02-20T06:18:07.492Z,99.90
2019-02-20T06:20:34.902Z,99.90
2019-02-20T06:23:02.150Z,99.90
2019-02-20T06:25:29.542Z,99.90
2019-02-20T06:27:56.849Z,99.90
2019-02-20T06:30:24.290Z,99.90
2019-02-20T06:32:51.752Z,99.90
2019-02-20T06:35:18.982Z,99.90
2019-02-20T06:37:46.534Z,99.90
2019-02-20T06:40:13.822Z,99.90
2019-02-20T06:42:41.255Z,99.90
2019-02-20T06:45:13.942Z,99.90
2019-02-20T06:47:41.448Z,99.90
2019-02-20T06:50:09.698Z,99.90
2019-02-20T06:52:36.987Z,99.90
2019-02-20T06:55:04.663Z,99.90
2019-02-20T06:57:32.015Z,99.90
2019-02-20T06:59:59.267Z,99.90
2019-02-20T07:02:26.730Z,99.90
2019-02-20T07:05:31.659Z,99.90
2019-02-20T07:08:34.978Z,99.90
2019-02-20T07:11:40.685Z,99.90
2019-02-20T07:14:27.455Z,99.90
2019-02-20T07:17:41.962Z,99.90
2019-02-20T07:20:44.811Z,99.90
2019-02-20T07:23:24.158Z,99.90
2019-02-20T07:26:21.201Z,99.90
2019-02-20T07:29:44.973Z,99.90
2019-02-20T07:32:16.548Z,99.90
2019-02-20T07:34:43.842Z,99.90
2019-02-20T07:37:11.126Z,99.90
2019-02-20T07:39:38.534Z,99.90
2019-02-20T07:42:05.816Z,99.90
2019-02-20T07:44:33.071Z,99.90
2019-02-20T07:47:00.470Z,99.90
2019-02-20T07:49:27.974Z,99.90
2019-02-20T07:51:56.304Z,99.90
2019-02-20T07:54:23.627Z,99.90
2019-02-20T07:56:50.934Z,99.90
2019-02-20T07:59:18.294Z,99.90
2019-02-20T08:01:45.542Z,99.90
2019-02-20T08:04:13.031Z,99.90
2019-02-20T08:06:40.325Z,99.90
2019-02-20T08:09:07.690Z,99.90
2019-02-20T08:11:35.016Z,99.90
2019-02-20T08:14:02.413Z,99.90
2019-02-20T08:16:29.707Z,99.90
2019-02-20T08:18:56.958Z,99.90
2019-02-20T08:21:24.200Z,99.90
2019-02-20T08:23:51.436Z,99.90
2019-02-20T08:26:18.804Z,99.90
2019-02-20T08:28:46.050Z,99.90
2019-02-20T08:31:13.526Z,98.90
2019-02-20T08:33:40.882Z,98.80
2019-02-20T08:36:08.340Z,99.20
2019-02-20T08:38:35.781Z,99.40
2019-02-20T08:41:03.061Z,98.50
2019-02-20T08:43:30.398Z,97.60
2019-02-20T08:45:57.786Z,97.10
2019-02-20T08:48:26.498Z,97.20
2019-02-20T08:50:54.070Z,97.20
2019-02-20T08:53:21.470Z,96.90
2019-02-20T08:55:48.695Z,96.60
2019-02-20T08:58:16.114Z,96.80
2019-02-20T09:00:43.703Z,96.90
2019-02-20T09:03:11.063Z,96.80
2019-02-20T09:05:38.453Z,96.60
2019-02-20T09:08:05.847Z,96.80
2019-02-20T09:10:33.126Z,95.90
2019-02-20T09:13:00.401Z,96.20
2019-02-20T09:15:27.750Z,96.20
2019-02-20T09:17:55.058Z,95.90
2019-02-20T09:20:22.318Z,95.30
2019-02-20T09:22:49.742Z,94.80
2019-02-20T09:25:19.845Z,93.90
2019-02-20T09:27:46.236Z,93.20
2019-02-20T09:30:13.692Z,92.90
2019-02-20T09:32:40.982Z,92.90
2019-02-20T09:35:08.347Z,92.10
2019-02-20T09:37:35.642Z,92.00
2019-02-20T09:40:03.765Z,91.30
2019-02-20T09:42:31.222Z,91.30
2019-02-20T09:44:58.666Z,91.30
2019-02-20T09:47:26.171Z,91.20
2019-02-20T09:49:53.494Z,91.10
2019-02-20T09:52:20.862Z,91.10
2019-02-20T09:54:49.166Z,90.90
2019-02-20T09:57:16.418Z,90.30
2019-02-20T09:59:43.925Z,90.20
2019-02-20T10:02:11.163Z,90.40
2019-02-20T10:04:38.493Z,90.00
2019-02-20T10:07:05.848Z,90.30
2019-02-20T10:09:33.333Z,90.20
2019-02-20T10:12:00.622Z,90.40
2019-02-20T10:14:27.879Z,90.30
2019-02-20T10:16:55.205Z,90.40
2019-02-20T10:19:22.566Z,90.10
2019-02-20T10:21:49.844Z,90.40
2019-02-20T10:24:17.223Z,90.00
2019-02-20T10:26:44.894Z,88.50
2019-02-20T10:29:12.263Z,88.30
2019-02-20T10:31:39.743Z,88.50
2019-02-20T10:34:07.042Z,86.80
2019-02-20T10:36:34.287Z,87.70
2019-02-20T10:39:01.791Z,87.40
2019-02-20T10:41:29.422Z,86.20
2019-02-20T10:43:56.770Z,86.30
2019-02-20T10:46:24.055Z,85.90
2019-02-20T10:48:51.389Z,85.70
2019-02-20T10:51:18.845Z,85.50
2019-02-20T10:53:46.150Z,85.10
2019-02-20T10:56:14.425Z,85.00
2019-02-20T10:58:41.740Z,81.20
2019-02-20T11:01:08.962Z,83.50
2019-02-20T11:03:36.300Z,82.60
2019-02-20T11:06:03.518Z,84.90
2019-02-20T11:08:30.782Z,83.40
2019-02-20T11:10:58.070Z,83.00
2019-02-20T11:13:25.400Z,83.20
2019-02-20T11:15:52.613Z,80.80
2019-02-20T11:18:19.874Z,79.50
2019-02-20T11:20:48.585Z,79.00
2019-02-20T11:23:16.093Z,79.50
2019-02-20T11:25:43.346Z,80.00
2019-02-20T11:28:10.717Z,77.40
2019-02-20T11:30:38.323Z,80.40
2019-02-20T11:33:05.667Z,80.30
2019-02-20T11:35:32.903Z,79.70
2019-02-20T11:38:00.205Z,77.70
2019-02-20T11:40:27.730Z,78.20
2019-02-20T11:42:55.012Z,78.40
2019-02-20T11:45:22.405Z,77.80
2019-02-20T11:47:49.757Z,79.00
2019-02-20T11:50:17.019Z,79.90
2019-02-20T11:52:44.287Z,79.30
2019-02-20T11:55:11.651Z,79.40
2019-02-20T11:57:39.519Z,78.90
2019-02-20T12:00:08.378Z,79.90
2019-02-20T12:02:37.572Z,80.50
2019-02-20T12:05:05.149Z,82.00
2019-02-20T12:07:32.548Z,85.00
2019-02-20T12:09:59.982Z,86.00
2019-02-20T12:12:27.327Z,88.00
2019-02-20T12:14:54.658Z,87.70
2019-02-20T12:17:21.931Z,86.90
2019-02-20T12:19:49.175Z,87.70
2019-02-20T12:22:16.415Z,82.90
2019-02-20T12:24:43.766Z,85.50
2019-02-20T12:27:11.122Z,84.60
2019-02-20T12:29:38.450Z,86.00
2019-02-20T12:32:05.798Z,83.10
2019-02-20T12:34:33.179Z,82.80
2019-02-20T12:37:00.541Z,82.80
2019-02-20T12:39:27.889Z,85.10
2019-02-20T12:41:55.211Z,84.70
2019-02-20T12:44:22.518Z,84.90
2019-02-20T12:46:49.921Z,84.80
2019-02-20T12:49:17.322Z,83.70
2019-02-20T12:51:44.542Z,83.00
2019-02-20T12:54:11.914Z,82.20
2019-02-20T12:56:44.065Z,83.00
2019-02-20T12:59:08.466Z,83.30
2019-02-20T13:01:35.722Z,80.80
2019-02-20T13:04:02.983Z,79.40
2019-02-20T13:06:30.310Z,80.90
2019-02-20T13:08:57.663Z,81.70
2019-02-20T13:11:24.898Z,81.20
2019-02-20T13:13:52.210Z,81.30
2019-02-20T13:16:19.505Z,81.20
2019-02-20T13:18:46.770Z,82.60
2019-02-20T13:21:14.069Z,82.00
2019-02-20T13:23:41.320Z,80.10
2019-02-20T13:26:08.541Z,79.90
2019-02-20T13:28:35.886Z,80.30
2019-02-20T13:31:03.482Z,80.30
2019-02-20T13:33:30.752Z,79.70
2019-02-20T13:35:58.085Z,79.50
2019-02-20T13:38:25.449Z,81.50
2019-02-20T13:40:52.810Z,80.80
2019-02-20T13:43:20.058Z,80.10
2019-02-20T13:45:47.619Z,80.30
2019-02-20T13:48:14.974Z,80.50
2019-02-20T13:50:42.314Z,81.10
2019-02-20T13:53:09.699Z,80.80
2019-02-20T13:55:36.945Z,80.20
2019-02-20T13:58:04.278Z,80.50
2019-02-20T14:00:32.518Z,80.80
2019-02-20T14:03:01.182Z,80.20
2019-02-20T14:05:28.706Z,79.80
2019-02-20T14:07:56.065Z,79.00
2019-02-20T14:10:23.522Z,79.30
2019-02-20T14:12:50.885Z,79.30
2019-02-20T14:15:18.142Z,80.20
2019-02-20T14:17:45.666Z,79.60
2019-02-20T14:20:13.106Z,81.50
2019-02-20T14:22:40.781Z,80.30
2019-02-20T14:25:08.137Z,82.40
2019-02-20T14:27:35.481Z,80.80
2019-02-20T14:30:03.323Z,80.90
2019-02-20T14:32:30.792Z,80.50
2019-02-20T14:34:58.124Z,81.00
2019-02-20T14:37:25.466Z,81.50
2019-02-20T14:39:53.115Z,80.80
2019-02-20T14:42:20.394Z,80.90
2019-02-20T14:44:47.906Z,79.60
2019-02-20T14:47:15.430Z,79.90
2019-02-20T14:49:42.679Z,80.20
2019-02-20T14:52:10.125Z,81.00
2019-02-20T14:54:37.352Z,79.90
2019-02-20T14:57:04.725Z,79.90
2019-02-20T14:59:32.471Z,80.50
2019-02-20T15:02:00.922Z,78.50
2019-02-20T15:04:28.447Z,78.70
2019-02-20T15:06:55.815Z,79.20
2019-02-20T15:09:23.202Z,80.20
2019-02-20T15:11:50.735Z,79.00
2019-02-20T15:14:18.128Z,79.60
2019-02-20T15:16:45.769Z,79.60
2019-02-20T15:19:13.134Z,79.50
2019-02-20T15:21:40.563Z,79.80
2019-02-20T15:24:07.918Z,80.30
2019-02-20T15:26:35.245Z,81.30
2019-02-20T15:29:02.498Z,81.00
2019-02-20T15:31:33.777Z,81.80
2019-02-20T15:33:59.069Z,81.50
2019-02-20T15:36:26.525Z,81.10
2019-02-20T15:38:53.874Z,81.60
2019-02-20T15:41:21.316Z,81.30
2019-02-20T15:43:48.555Z,81.30
2019-02-20T15:46:15.894Z,81.30
2019-02-20T15:48:43.253Z,82.90
2019-02-20T15:51:10.536Z,83.00
2019-02-20T15:53:38.275Z,83.60
2019-02-20T15:56:05.590Z,82.90
2019-02-20T15:58:32.959Z,82.80
2019-02-20T16:01:00.398Z,83.20
2019-02-20T16:03:28.723Z,83.90
2019-02-20T16:05:56.682Z,84.60
2019-02-20T16:08:23.910Z,85.20
2019-02-20T16:10:51.161Z,86.20
2019-02-20T16:13:18.938Z,86.20
2019-02-20T16:15:46.186Z,85.60
2019-02-20T16:18:13.599Z,85.50
2019-02-20T16:20:41.027Z,86.50
2019-02-20T16:23:08.331Z,87.70
2019-02-20T16:25:35.742Z,86.80
2019-02-20T16:28:03.077Z,86.20
2019-02-20T16:30:30.460Z,86.50
2019-02-20T16:32:57.929Z,85.90
2019-02-20T16:35:25.385Z,85.60
2019-02-20T16:37:52.635Z,85.40
2019-02-20T16:40:19.946Z,85.70
2019-02-20T16:42:47.277Z,86.40
2019-02-20T16:45:20.299Z,87.40
2019-02-20T16:47:47.805Z,87.20
2019-02-20T16:50:15.165Z,87.20
2019-02-20T16:52:42.602Z,88.60
2019-02-20T16:55:09.972Z,88.90
2019-02-20T16:57:37.310Z,89.00
2019-02-20T17:00:05.239Z,88.70
2019-02-20T17:02:32.587Z,88.40
2019-02-20T17:05:00.871Z,88.50
2019-02-20T17:07:28.735Z,89.50
2019-02-20T17:09:55.949Z,90.10
2019-02-20T17:12:23.459Z,90.00
2019-02-20T17:14:50.892Z,90.20
2019-02-20T17:17:18.183Z,90.40
2019-02-20T17:19:45.542Z,90.70
2019-02-20T17:22:12.970Z,91.20
2019-02-20T17:24:40.631Z,91.80
2019-02-20T17:27:07.890Z,92.10
2019-02-20T17:29:35.178Z,92.60
2019-02-20T17:32:02.522Z,92.10
2019-02-20T17:34:29.874Z,91.90
2019-02-20T17:36:57.239Z,91.90
2019-02-20T17:39:24.607Z,92.20
2019-02-20T17:41:51.871Z,92.60
2019-02-20T17:44:19.433Z,92.80
2019-02-20T17:46:46.861Z,92.80
2019-02-20T17:49:14.353Z,92.80
2019-02-20T17:51:41.718Z,92.30
2019-02-20T17:54:09.098Z,92.50
2019-02-20T17:56:36.350Z,92.60
2019-02-20T17:59:03.914Z,92.90
2019-02-20T18:01:31.338Z,93.10
2019-02-20T18:03:58.562Z,93.30
2019-02-20T18:06:25.835Z,93.10
2019-02-20T18:08:53.250Z,93.00
2019-02-20T18:11:20.638Z,92.80
2019-02-20T18:13:47.886Z,93.50
2019-02-20T18:16:15.149Z,93.70
2019-02-20T18:18:42.394Z,93.80
2019-02-20T18:21:09.814Z,93.60
2019-02-20T18:23:37.031Z,93.80
2019-02-20T18:26:04.480Z,94.50
2019-02-20T18:28:32.207Z,94.70
2019-02-20T18:30:59.522Z,94.90
2019-02-20T18:33:26.986Z,95.00
2019-02-20T18:35:54.287Z,95.20
2019-02-20T18:38:21.506Z,95.40
2019-02-20T18:40:48.840Z,95.70
2019-02-20T18:43:16.189Z,95.60
2019-02-20T18:45:43.530Z,96.10
2019-02-20T18:48:10.989Z,96.20
2019-02-20T18:50:38.261Z,96.90
2019-02-20T18:53:05.643Z,97.00
2019-02-20T18:55:33.118Z,97.10
2019-02-20T18:58:00.433Z,97.00
2019-02-20T19:00:27.923Z,97.00
2019-02-20T19:02:55.298Z,96.90
2019-02-20T19:05:22.653Z,96.90
2019-02-20T19:07:50.460Z,97.30
2019-02-20T19:10:21.720Z,97.40
2019-02-20T19:13:34.061Z,97.60
2019-02-20T19:16:39.039Z,97.70
2019-02-20T19:19:30.553Z,98.00
2019-02-20T19:22:35.584Z,98.00
2019-02-20T19:25:45.246Z,98.30
2019-02-20T19:28:30.987Z,98.00
2019-02-20T19:32:07.654Z,97.90
2019-02-20T19:35:13.156Z,98.00
2019-02-20T19:38:19.024Z,97.80
2019-02-20T19:41:22.216Z,98.00
2019-02-20T19:44:16.209Z,97.80
2019-02-20T19:47:12.271Z,97.90
2019-02-20T19:50:07.199Z,98.30
2019-02-20T19:53:06.343Z,98.20
2019-02-20T19:56:15.295Z,98.20
2019-02-20T19:59:15.022Z,97.90
2019-02-20T20:02:28.927Z,98.00
2019-02-20T20:05:13.459Z,98.20
2019-02-20T20:08:21.467Z,98.50
2019-02-20T20:11:03.007Z,98.30
2019-02-20T20:14:04.360Z,98.50
2019-02-20T20:17:22.990Z,98.90
2019-02-20T20:20:33.966Z,98.90
2019-02-20T20:23:41.695Z,98.90
2019-02-20T20:26:23.087Z,98.50
2019-02-20T20:29:34.227Z,98.80
2019-02-20T20:32:25.107Z,99.20
2019-02-20T20:35:37.441Z,99.70
2019-02-20T20:38:14.667Z,99.90
2019-02-20T20:41:29.837Z,99.90
2019-02-20T20:44:13.068Z,99.70
2019-02-20T20:47:10.006Z,99.90
2019-02-20T20:50:15.795Z,99.90
2019-02-20T20:53:17.302Z,99.90
2019-02-20T20:56:31.327Z,99.90
2019-02-20T20:59:16.930Z,99.90
2019-02-20T21:02:03.879Z,99.90
2019-02-20T21:05:08.042Z,99.90
2019-02-20T21:07:45.587Z,99.90
2019-02-20T21:10:55.324Z,99.90
2019-02-20T21:14:11.336Z,99.90
2019-02-20T21:17:09.759Z,99.90
2019-02-20T21:20:06.608Z,99.90
2019-02-20T21:23:07.106Z,99.90
2019-02-20T21:26:07.734Z,99.90
2019-02-20T21:29:28.435Z,99.90
2019-02-20T21:32:39.393Z,99.90
2019-02-20T21:36:00.661Z,99.90
2019-02-20T21:38:52.126Z,99.90
2019-02-20T21:42:09.471Z,99.90
2019-02-20T21:45:24.892Z,99.90
2019-02-20T21:48:35.298Z,99.90
2019-02-20T21:51:10.124Z,99.90
2019-02-20T21:54:16.131Z,99.90
2019-02-20T21:57:24.391Z,99.90
2019-02-20T22:00:27.880Z,99.90
2019-02-20T22:03:31.930Z,99.90
2019-02-20T22:06:07.875Z,99.90
2019-02-20T22:09:28.974Z,99.90
2019-02-20T22:12:50.522Z,99.90
2019-02-20T22:15:54.202Z,99.90
2019-02-20T22:19:01.538Z,99.90
2019-02-20T22:22:16.897Z,99.90
2019-02-20T22:25:44.078Z,99.90
2019-02-20T22:29:03.943Z,99.90
2019-02-20T22:32:16.618Z,99.90
2019-02-20T22:35:09.426Z,99.90
2019-02-20T22:38:22.981Z,99.90
2019-02-20T22:41:05.246Z,99.90
2019-02-20T22:43:59.714Z,99.90
2019-02-20T22:46:40.522Z,99.90
2019-02-20T22:49:41.026Z,99.90
2019-02-20T22:52:34.173Z,99.90
2019-02-20T22:55:55.623Z,99.90
2019-02-20T22:58:49.978Z,99.90
2019-02-20T23:01:53.557Z,99.90
2019-02-20T23:05:11.854Z,99.90
2019-02-20T23:08:36.696Z,99.90
2019-02-20T23:11:42.990Z,99.90
2019-02-20T23:14:22.022Z,99.90
2019-02-20T23:16:49.290Z,99.90
2019-02-20T23:19:16.534Z,99.90
2019-02-20T23:21:43.777Z,99.90
2019-02-20T23:24:11.018Z,99.90
2019-02-20T23:26:38.254Z,99.90
2019-02-20T23:29:05.531Z,99.90
2019-02-20T23:31:32.986Z,99.90
2019-02-20T23:34:00.313Z,99.90
2019-02-20T23:36:27.700Z,99.90
2019-02-20T23:38:54.938Z,99.90
2019-02-20T23:41:22.186Z,99.90
2019-02-20T23:43:49.543Z,99.90
2019-02-20T23:46:16.887Z,99.90
2019-02-20T23:48:44.119Z,99.90
2019-02-20T23:51:11.389Z,99.90
2019-02-20T23:53:38.754Z,99.90
2019-02-20T23:56:05.994Z,99.90
2019-02-20T23:58:33.357Z,99.90
